createdAt,value
2017-09-16T00:00:15.280Z,90.30
2017-09-16T00:02:43.604Z,90.20
2017-09-16T00:05:11.160Z,90.20
2017-09-16T00:07:38.745Z,90.20
2017-09-16T00:10:06.320Z,90.10
2017-09-16T00:12:33.899Z,90.00
2017-09-16T00:15:02.229Z,90.00
2017-09-16T00:17:29.936Z,90.00
2017-09-16T00:19:57.497Z,90.20
2017-09-16T00:22:25.056Z,90.20
2017-09-16T00:24:52.916Z,90.20
2017-09-16T00:27:20.577Z,90.20
2017-09-16T00:29:48.161Z,89.90
2017-09-16T00:32:15.753Z,89.40
2017-09-16T00:34:43.341Z,89.90
2017-09-16T00:37:10.916Z,90.40
2017-09-16T00:39:38.504Z,90.10
2017-09-16T00:42:06.828Z,90.00
2017-09-16T00:44:34.632Z,90.00
2017-09-16T00:47:02.191Z,89.80
2017-09-16T00:49:29.748Z,89.90
2017-09-16T00:51:57.414Z,89.60
2017-09-16T00:54:25.260Z,89.30
2017-09-16T00:56:53.145Z,90.00
2017-09-16T00:59:20.708Z,89.30
2017-09-16T01:01:48.267Z,90.20
2017-09-16T01:04:16.204Z,90.50
2017-09-16T01:06:43.768Z,90.60
2017-09-16T01:09:12.149Z,90.70
2017-09-16T01:11:39.831Z,90.80
2017-09-16T01:14:07.387Z,90.80
2017-09-16T01:16:35.538Z,90.90
2017-09-16T01:19:04.368Z,91.10
2017-09-16T01:21:33.522Z,91.10
2017-09-16T01:24:03.172Z,91.10
2017-09-16T01:26:32.044Z,91.20
2017-09-16T01:28:59.612Z,91.20
2017-09-16T01:31:27.180Z,91.10
2017-09-16T01:33:54.857Z,91.10
2017-09-16T01:36:23.186Z,91.50
2017-09-16T01:38:51.781Z,91.20
2017-09-16T01:41:19.393Z,91.20
2017-09-16T01:43:47.720Z,91.10
2017-09-16T01:46:15.287Z,91.10
2017-09-16T01:48:42.971Z,91.20
2017-09-16T01:51:10.531Z,91.00
2017-09-16T01:53:38.128Z,91.10
2017-09-16T01:56:05.692Z,91.00
2017-09-16T01:58:33.266Z,91.10
2017-09-16T02:01:00.852Z,91.20
2017-09-16T02:03:28.436Z,91.30
2017-09-16T02:05:56.035Z,91.40
2017-09-16T02:08:23.595Z,91.30
2017-09-16T02:10:52.797Z,91.30
2017-09-16T02:13:20.368Z,91.00
2017-09-16T02:15:47.956Z,91.30
2017-09-16T02:18:15.516Z,91.20
2017-09-16T02:20:43.116Z,91.30
2017-09-16T02:23:11.439Z,91.40
2017-09-16T02:25:39.009Z,91.40
2017-09-16T02:28:06.700Z,91.10
2017-09-16T02:30:34.264Z,91.20
2017-09-16T02:33:01.836Z,91.10
2017-09-16T02:35:30.305Z,91.10
2017-09-16T02:37:58.068Z,91.10
2017-09-16T02:40:25.632Z,91.10
2017-09-16T02:42:53.236Z,91.20
2017-09-16T02:45:20.800Z,91.10
2017-09-16T02:47:48.381Z,91.20
2017-09-16T02:50:15.957Z,91.30
2017-09-16T02:52:43.574Z,91.30
2017-09-16T02:55:11.133Z,91.50
2017-09-16T02:57:38.714Z,91.30
2017-09-16T03:00:06.300Z,91.30
2017-09-16T03:02:33.864Z,91.40
2017-09-16T03:05:01.479Z,91.80
2017-09-16T03:07:29.100Z,91.50
2017-09-16T03:09:56.669Z,91.40
2017-09-16T03:12:25.045Z,91.50
2017-09-16T03:14:53.724Z,91.60
2017-09-16T03:17:21.383Z,91.40
2017-09-16T03:19:49.896Z,91.40
2017-09-16T03:22:18.220Z,91.40
2017-09-16T03:24:45.813Z,91.40
2017-09-16T03:27:13.372Z,91.30
2017-09-16T03:29:42.716Z,91.30
2017-09-16T03:32:10.280Z,91.30
2017-09-16T03:34:37.903Z,91.20
2017-09-16T03:37:06.277Z,91.20
2017-09-16T03:39:33.937Z,91.20
2017-09-16T03:42:02.288Z,91.10
2017-09-16T03:44:29.876Z,91.10
2017-09-16T03:46:57.648Z,90.80
2017-09-16T03:49:25.209Z,91.00
2017-09-16T03:51:53.038Z,91.00
2017-09-16T03:54:20.623Z,91.00
2017-09-16T03:56:48.183Z,90.90
2017-09-16T03:59:15.772Z,91.00
2017-09-16T04:01:56.165Z,91.00
2017-09-16T04:04:23.752Z,91.00
2017-09-16T04:06:53.792Z,90.70
2017-09-16T04:09:21.377Z,90.90
2017-09-16T04:11:50.628Z,90.50
2017-09-16T04:14:18.224Z,90.50
2017-09-16T04:16:46.552Z,91.30
2017-09-16T04:19:14.264Z,91.00
2017-09-16T04:21:41.828Z,91.40
2017-09-16T04:24:10.165Z,91.80
2017-09-16T04:26:37.756Z,91.80
2017-09-16T04:29:05.324Z,92.00
2017-09-16T04:31:32.908Z,91.80
2017-09-16T04:34:01.240Z,91.00
2017-09-16T04:36:29.020Z,91.00
2017-09-16T04:38:59.650Z,91.00
2017-09-16T04:41:27.512Z,90.60
2017-09-16T04:43:55.108Z,90.30
2017-09-16T04:46:23.443Z,90.80
2017-09-16T04:48:53.064Z,90.80
2017-09-16T04:51:20.627Z,90.90
2017-09-16T04:53:48.961Z,91.10
2017-09-16T04:56:18.417Z,91.20
2017-09-16T04:58:47.488Z,91.10
2017-09-16T05:01:15.077Z,91.10
2017-09-16T05:03:43.419Z,91.60
2017-09-16T05:06:11.012Z,91.30
2017-09-16T05:08:38.572Z,91.40
2017-09-16T05:11:06.924Z,91.70
2017-09-16T05:13:34.484Z,91.70
2017-09-16T05:16:02.840Z,92.10
2017-09-16T05:18:30.446Z,92.10
2017-09-16T05:20:58.969Z,92.20
2017-09-16T05:23:26.600Z,92.20
2017-09-16T05:25:54.252Z,92.40
2017-09-16T05:28:21.835Z,92.90
2017-09-16T05:30:51.077Z,93.70
2017-09-16T05:33:18.660Z,94.00
2017-09-16T05:35:46.229Z,93.60
2017-09-16T05:38:13.996Z,93.60
2017-09-16T05:40:42.325Z,94.50
2017-09-16T05:43:09.884Z,94.20
2017-09-16T05:45:37.472Z,94.30
2017-09-16T05:48:05.037Z,94.30
2017-09-16T05:50:33.136Z,93.60
2017-09-16T05:53:00.700Z,93.10
2017-09-16T05:55:28.268Z,91.40
2017-09-16T05:57:56.620Z,91.00
2017-09-16T06:00:24.180Z,90.70
2017-09-16T06:02:52.962Z,88.80
2017-09-16T06:05:20.524Z,88.70
2017-09-16T06:07:48.084Z,87.80
2017-09-16T06:10:15.676Z,80.90
2017-09-16T06:12:43.240Z,79.30
2017-09-16T06:15:11.592Z,77.90
2017-09-16T06:17:39.164Z,78.00
2017-09-16T06:20:06.824Z,76.40
2017-09-16T06:22:34.388Z,76.30
2017-09-16T06:25:01.962Z,76.80
2017-09-16T06:27:30.320Z,74.40
2017-09-16T06:29:57.900Z,74.30
2017-09-16T06:32:25.500Z,72.50
2017-09-16T06:34:53.905Z,65.80
2017-09-16T06:37:21.469Z,65.90
2017-09-16T06:39:49.152Z,61.30
2017-09-16T06:42:16.712Z,61.40
2017-09-16T06:44:45.841Z,61.00
2017-09-16T06:47:14.176Z,61.00
2017-09-16T06:49:41.740Z,61.10
2017-09-16T06:52:09.368Z,60.90
2017-09-16T06:54:36.956Z,59.50
2017-09-16T06:57:04.532Z,59.50
2017-09-16T06:59:33.625Z,58.40
2017-09-16T07:02:01.188Z,58.30
2017-09-16T07:04:28.785Z,58.00
2017-09-16T07:06:56.356Z,58.10
2017-09-16T07:09:23.961Z,58.20
2017-09-16T07:11:53.552Z,56.30
2017-09-16T07:14:21.112Z,56.30
2017-09-16T07:16:50.443Z,54.70
2017-09-16T07:19:18.009Z,54.70
2017-09-16T07:21:45.599Z,56.40
2017-09-16T07:24:13.164Z,53.90
2017-09-16T07:26:40.896Z,54.60
2017-09-16T07:29:09.236Z,53.40
2017-09-16T07:31:36.796Z,53.30
2017-09-16T07:34:04.381Z,53.00
2017-09-16T07:36:31.948Z,53.10
2017-09-16T07:39:01.052Z,50.10
2017-09-16T07:41:28.621Z,50.10
2017-09-16T07:43:56.993Z,49.00
2017-09-16T07:46:24.564Z,49.00
2017-09-16T07:48:53.759Z,49.40
2017-09-16T07:51:22.113Z,45.90
2017-09-16T07:53:51.020Z,45.70
2017-09-16T07:56:18.612Z,46.30
2017-09-16T07:58:46.172Z,45.60
2017-09-16T08:01:13.900Z,43.40
2017-09-16T08:03:41.564Z,45.20
2017-09-16T08:06:09.969Z,46.40
2017-09-16T08:08:38.427Z,43.70
2017-09-16T08:11:06.001Z,43.60
2017-09-16T08:13:34.356Z,42.60
2017-09-16T08:16:02.024Z,42.70
2017-09-16T08:18:30.108Z,43.00
2017-09-16T08:20:57.688Z,43.10
2017-09-16T08:23:25.324Z,41.40
2017-09-16T08:25:53.028Z,39.50
2017-09-16T08:28:20.592Z,39.20
2017-09-16T08:30:48.417Z,38.80
2017-09-16T08:33:17.491Z,38.80
2017-09-16T08:35:45.052Z,38.80
2017-09-16T08:38:12.728Z,38.00
2017-09-16T08:40:40.299Z,38.00
2017-09-16T08:43:08.060Z,36.90
2017-09-16T08:45:35.624Z,36.00
2017-09-16T08:48:03.190Z,34.10
2017-09-16T08:50:30.844Z,35.60
2017-09-16T08:52:59.927Z,34.20
2017-09-16T08:55:27.575Z,34.10
2017-09-16T08:57:55.144Z,35.30
2017-09-16T09:00:22.828Z,34.00
2017-09-16T09:02:51.779Z,35.00
2017-09-16T09:05:19.407Z,34.90
2017-09-16T09:07:47.735Z,31.80
2017-09-16T09:10:15.295Z,31.80
2017-09-16T09:12:42.881Z,29.70
2017-09-16T09:15:10.545Z,30.50
2017-09-16T09:17:38.136Z,31.20
2017-09-16T09:20:05.877Z,30.10
2017-09-16T09:22:33.632Z,30.70
2017-09-16T09:25:01.204Z,31.30
2017-09-16T09:27:29.536Z,31.80
2017-09-16T09:29:57.136Z,31.70
2017-09-16T09:32:24.796Z,32.00
2017-09-16T09:34:54.104Z,29.30
2017-09-16T09:37:22.441Z,29.20
2017-09-16T09:39:51.840Z,28.70
2017-09-16T09:42:19.428Z,29.50
2017-09-16T09:44:47.000Z,28.00
2017-09-16T09:47:14.608Z,26.40
2017-09-16T09:49:42.173Z,27.10
2017-09-16T09:52:09.789Z,26.90
2017-09-16T09:54:38.170Z,25.50
2017-09-16T09:57:05.733Z,25.40
2017-09-16T09:59:34.068Z,26.00
2017-09-16T10:02:01.867Z,26.00
2017-09-16T10:04:29.428Z,25.50
2017-09-16T10:06:56.992Z,25.10
2017-09-16T10:09:24.752Z,26.00
2017-09-16T10:11:53.714Z,25.70
2017-09-16T10:14:21.309Z,25.50
2017-09-16T10:16:50.815Z,24.90
2017-09-16T10:19:18.576Z,24.90
2017-09-16T10:21:46.909Z,24.40
2017-09-16T10:24:14.477Z,24.90
2017-09-16T10:26:42.836Z,25.50
2017-09-16T10:29:10.461Z,25.30
2017-09-16T10:31:38.119Z,24.30
2017-09-16T10:34:06.600Z,25.60
2017-09-16T10:36:34.264Z,25.60
2017-09-16T10:39:01.829Z,24.70
2017-09-16T10:41:29.484Z,24.50
2017-09-16T10:43:57.049Z,24.90
2017-09-16T10:46:24.708Z,25.10
2017-09-16T10:48:52.982Z,24.30
2017-09-16T10:51:20.588Z,23.50
2017-09-16T10:53:48.152Z,23.40
2017-09-16T10:56:15.720Z,22.50
2017-09-16T10:58:43.329Z,25.30
2017-09-16T11:01:10.900Z,25.50
2017-09-16T11:03:38.552Z,26.60
2017-09-16T11:06:06.328Z,24.60
2017-09-16T11:08:33.888Z,25.60
2017-09-16T11:11:02.239Z,26.90
2017-09-16T11:13:29.807Z,26.40
2017-09-16T11:15:57.564Z,24.50
2017-09-16T11:18:25.132Z,24.20
2017-09-16T11:20:52.908Z,23.40
2017-09-16T11:23:21.576Z,22.10
2017-09-16T11:25:49.136Z,22.10
2017-09-16T11:28:16.704Z,21.90
2017-09-16T11:30:44.380Z,21.70
2017-09-16T11:33:11.948Z,22.80
2017-09-16T11:35:39.704Z,23.10
2017-09-16T11:38:07.273Z,22.80
2017-09-16T11:40:34.840Z,22.80
2017-09-16T11:43:03.212Z,22.20
2017-09-16T11:45:30.776Z,22.20
2017-09-16T11:47:59.109Z,25.00
2017-09-16T11:50:26.691Z,25.00
2017-09-16T11:52:54.251Z,26.10
2017-09-16T11:55:21.837Z,26.90
2017-09-16T11:57:49.932Z,28.00
2017-09-16T12:00:17.524Z,29.60
2017-09-16T12:02:45.088Z,30.00
2017-09-16T12:05:12.792Z,32.00
2017-09-16T12:07:40.352Z,33.20
2017-09-16T12:10:08.745Z,31.60
2017-09-16T12:12:37.076Z,30.70
2017-09-16T12:15:04.649Z,30.70
2017-09-16T12:17:32.236Z,31.70
2017-09-16T12:20:00.563Z,30.20
2017-09-16T12:22:28.171Z,30.10
2017-09-16T12:24:55.731Z,27.90
2017-09-16T12:27:23.296Z,25.50
2017-09-16T12:29:51.907Z,24.60
2017-09-16T12:32:19.469Z,22.80
2017-09-16T12:34:47.093Z,22.20
2017-09-16T12:37:14.656Z,23.40
2017-09-16T12:39:43.018Z,23.90
2017-09-16T12:42:10.705Z,24.00
2017-09-16T12:44:38.461Z,25.90
2017-09-16T12:47:06.021Z,27.70
2017-09-16T12:49:33.680Z,28.90
2017-09-16T12:52:01.556Z,27.10
2017-09-16T12:54:29.208Z,26.90
2017-09-16T12:56:56.772Z,24.10
2017-09-16T12:59:24.436Z,24.60
2017-09-16T13:01:53.728Z,25.90
2017-09-16T13:04:21.509Z,25.90
2017-09-16T13:06:50.759Z,26.80
2017-09-16T13:09:18.324Z,26.70
2017-09-16T13:11:45.916Z,26.50
2017-09-16T13:14:13.484Z,26.80
2017-09-16T13:19:13.909Z,25.20
2017-09-16T13:21:41.500Z,24.20
2017-09-16T13:24:09.872Z,23.00
2017-09-16T13:26:37.441Z,23.00
2017-09-16T13:29:05.792Z,23.70
2017-09-16T13:31:33.352Z,23.70
2017-09-16T13:34:00.948Z,24.30
2017-09-16T13:36:29.290Z,24.60
2017-09-16T13:38:56.896Z,24.60
2017-09-16T13:41:25.227Z,24.70
2017-09-16T13:43:53.015Z,24.60
2017-09-16T13:46:20.678Z,25.00
2017-09-16T13:48:49.017Z,22.40
2017-09-16T13:51:16.612Z,22.50
2017-09-16T13:53:44.281Z,22.20
2017-09-16T13:56:12.040Z,21.80
2017-09-16T13:58:39.604Z,21.50
2017-09-16T14:01:07.941Z,21.60
2017-09-16T14:03:35.534Z,21.50
2017-09-16T14:06:04.640Z,22.60
2017-09-16T14:08:32.236Z,22.60
2017-09-16T14:10:59.869Z,25.50
2017-09-16T14:13:27.760Z,27.80
2017-09-16T14:15:56.207Z,27.00
2017-09-16T14:18:23.793Z,27.00
2017-09-16T14:20:52.882Z,25.90
2017-09-16T14:23:21.244Z,25.00
2017-09-16T14:25:48.804Z,25.00
2017-09-16T14:28:17.899Z,26.30
2017-09-16T14:30:45.564Z,26.30
2017-09-16T14:33:14.517Z,25.80
2017-09-16T14:35:42.105Z,25.80
2017-09-16T14:38:09.671Z,24.90
2017-09-16T14:40:37.279Z,25.70
2017-09-16T14:43:05.610Z,27.90
2017-09-16T14:45:33.976Z,29.20
2017-09-16T14:48:01.561Z,28.80
2017-09-16T14:50:29.888Z,28.50
2017-09-16T14:52:57.483Z,28.50
2017-09-16T14:55:25.061Z,29.00
2017-09-16T14:57:52.941Z,28.50
2017-09-16T15:00:21.298Z,27.80
2017-09-16T15:02:50.547Z,26.90
2017-09-16T15:05:18.144Z,27.10
2017-09-16T15:07:45.708Z,26.60
2017-09-16T15:10:13.392Z,27.00
2017-09-16T15:12:40.973Z,28.30
2017-09-16T15:15:09.332Z,27.70
2017-09-16T15:17:36.895Z,27.60
2017-09-16T15:20:04.552Z,27.50
2017-09-16T15:22:32.933Z,28.40
2017-09-16T15:25:00.496Z,27.90
2017-09-16T15:27:28.161Z,28.80
2017-09-16T15:29:55.724Z,28.70
2017-09-16T15:32:23.308Z,28.10
2017-09-16T15:34:51.924Z,28.90
2017-09-16T15:37:19.528Z,28.90
2017-09-16T15:39:47.863Z,29.00
2017-09-16T15:42:15.465Z,29.00
2017-09-16T15:44:43.049Z,29.20
2017-09-16T15:47:10.696Z,29.60
2017-09-16T15:49:38.256Z,30.00
2017-09-16T15:52:06.612Z,29.10
2017-09-16T15:54:34.183Z,28.80
2017-09-16T15:57:01.773Z,27.70
2017-09-16T15:59:30.100Z,28.70
2017-09-16T16:01:57.684Z,28.60
2017-09-16T16:04:25.646Z,28.20
2017-09-16T16:06:53.316Z,28.60
2017-09-16T16:09:20.877Z,28.70
2017-09-16T16:11:48.547Z,30.00
2017-09-16T16:14:16.204Z,31.10
2017-09-16T16:16:43.865Z,31.50
2017-09-16T16:19:11.465Z,31.20
2017-09-16T16:21:39.024Z,31.60
2017-09-16T16:24:06.610Z,31.80
2017-09-16T16:26:34.172Z,31.30
2017-09-16T16:29:01.774Z,32.50
2017-09-16T16:31:29.336Z,31.70
2017-09-16T16:33:56.928Z,33.40
2017-09-16T16:36:24.493Z,33.10
2017-09-16T16:38:52.850Z,32.60
2017-09-16T16:41:21.188Z,33.70
2017-09-16T16:43:49.038Z,33.70
2017-09-16T16:46:16.598Z,34.60
2017-09-16T16:48:44.196Z,34.80
2017-09-16T16:51:11.869Z,35.40
2017-09-16T16:53:39.458Z,37.50
2017-09-16T16:56:07.081Z,36.90
2017-09-16T16:58:34.754Z,37.50
2017-09-16T17:01:03.112Z,40.10
2017-09-16T17:03:30.692Z,39.80
2017-09-16T17:05:58.284Z,41.20
2017-09-16T17:08:25.844Z,42.70
2017-09-16T17:10:53.431Z,43.30
2017-09-16T17:13:20.999Z,43.80
2017-09-16T17:15:48.696Z,44.60
2017-09-16T17:18:16.351Z,45.10
2017-09-16T17:20:43.936Z,45.70
2017-09-16T17:23:12.265Z,46.10
2017-09-16T17:25:39.848Z,46.10
2017-09-16T17:28:07.408Z,46.80
2017-09-16T17:30:34.997Z,47.10
2017-09-16T17:33:03.337Z,49.40
2017-09-16T17:35:31.020Z,49.40
2017-09-16T17:37:58.596Z,48.90
2017-09-16T17:40:27.919Z,49.20
2017-09-16T17:42:55.498Z,49.20
2017-09-16T17:45:23.084Z,49.50
2017-09-16T17:47:52.669Z,51.50
2017-09-16T17:50:20.277Z,51.30
2017-09-16T17:52:47.848Z,52.80
2017-09-16T17:55:16.176Z,53.80
2017-09-16T17:57:43.763Z,53.80
2017-09-16T18:00:11.372Z,54.50
2017-09-16T18:02:38.936Z,54.90
2017-09-16T18:05:06.552Z,55.10
2017-09-16T18:07:34.135Z,54.10
2017-09-16T18:10:02.460Z,53.70
2017-09-16T18:12:30.048Z,53.70
2017-09-16T18:14:57.620Z,53.90
2017-09-16T18:17:25.245Z,54.20
2017-09-16T18:19:53.724Z,54.80
2017-09-16T18:22:21.286Z,54.70
2017-09-16T18:24:49.088Z,55.00
2017-09-16T18:27:16.745Z,54.80
2017-09-16T18:29:44.308Z,55.20
2017-09-16T18:32:13.413Z,55.60
2017-09-16T18:34:41.761Z,56.20
2017-09-16T18:37:10.009Z,56.20
2017-09-16T18:39:37.596Z,56.20
2017-09-16T18:42:05.160Z,56.30
2017-09-16T18:44:32.841Z,56.70
2017-09-16T18:47:00.504Z,56.80
2017-09-16T18:49:28.069Z,57.20
2017-09-16T18:51:55.659Z,57.50
2017-09-16T18:54:23.229Z,58.00
2017-09-16T18:56:51.092Z,58.20
2017-09-16T18:59:18.655Z,58.30
2017-09-16T19:01:46.872Z,58.80
2017-09-16T19:04:14.435Z,59.50
2017-09-16T19:06:42.016Z,60.20
2017-09-16T19:09:09.607Z,60.20
2017-09-16T19:11:37.235Z,60.10
2017-09-16T19:14:04.829Z,60.40
2017-09-16T19:16:33.173Z,60.20
2017-09-16T19:19:00.836Z,60.20
2017-09-16T19:21:28.395Z,60.40
2017-09-16T19:23:55.969Z,60.70
2017-09-16T19:26:23.553Z,60.90
2017-09-16T19:28:52.024Z,61.20
2017-09-16T19:31:20.688Z,61.80
2017-09-16T19:33:48.348Z,61.70
2017-09-16T19:36:15.909Z,62.20
2017-09-16T19:38:43.672Z,62.30
2017-09-16T19:41:11.233Z,63.10
2017-09-16T19:43:39.565Z,64.40
2017-09-16T19:46:07.215Z,64.40
2017-09-16T19:48:34.780Z,65.00
2017-09-16T19:51:02.378Z,65.60
2017-09-16T19:53:29.943Z,66.20
2017-09-16T19:55:57.510Z,66.30
2017-09-16T19:58:25.103Z,66.40
2017-09-16T20:00:52.952Z,66.20
2017-09-16T20:03:20.577Z,67.20
2017-09-16T20:05:48.143Z,67.50
2017-09-16T20:08:15.704Z,68.80
2017-09-16T20:10:43.488Z,69.20
2017-09-16T20:13:11.156Z,69.50
2017-09-16T20:15:38.717Z,69.60
2017-09-16T20:18:08.136Z,70.20
2017-09-16T20:20:36.459Z,70.20
2017-09-16T20:23:04.016Z,70.10
2017-09-16T20:25:31.600Z,70.40
2017-09-16T20:27:59.161Z,70.60
2017-09-16T20:30:26.759Z,71.10
2017-09-16T20:32:55.129Z,71.50
2017-09-16T20:35:22.784Z,71.40
2017-09-16T20:37:52.083Z,71.50
2017-09-16T20:40:19.653Z,72.40
2017-09-16T20:42:47.217Z,72.40
2017-09-16T20:45:14.799Z,70.50
2017-09-16T20:47:43.124Z,70.70
2017-09-16T20:50:10.908Z,70.70
2017-09-16T20:52:38.480Z,70.60
2017-09-16T20:55:06.044Z,70.90
2017-09-16T20:57:34.412Z,71.30
2017-09-16T21:00:02.736Z,70.10
2017-09-16T21:02:30.324Z,70.10
2017-09-16T21:04:57.890Z,70.00
2017-09-16T21:07:25.683Z,70.00
2017-09-16T21:09:53.253Z,70.70
2017-09-16T21:12:21.587Z,70.80
2017-09-16T21:14:50.105Z,70.70
2017-09-16T21:17:17.677Z,70.90
2017-09-16T21:19:46.144Z,71.00
2017-09-16T21:22:13.708Z,71.00
2017-09-16T21:24:41.268Z,71.10
2017-09-16T21:27:08.858Z,71.30
2017-09-16T21:29:36.420Z,70.80
2017-09-16T21:32:04.045Z,71.50
2017-09-16T21:34:32.380Z,71.30
2017-09-16T21:36:59.943Z,71.30
2017-09-16T21:39:27.532Z,71.30
2017-09-16T21:41:55.097Z,71.30
2017-09-16T21:44:23.453Z,71.60
2017-09-16T21:46:52.748Z,72.70
2017-09-16T21:49:20.341Z,72.10
2017-09-16T21:51:47.904Z,71.80
2017-09-16T21:54:15.568Z,72.20
2017-09-16T21:56:43.895Z,73.30
2017-09-16T21:59:11.508Z,73.30
2017-09-16T22:01:39.107Z,73.60
2017-09-16T22:04:06.668Z,74.00
2017-09-16T22:06:34.229Z,75.10
2017-09-16T22:09:01.952Z,74.90
2017-09-16T22:11:29.512Z,74.70
2017-09-16T22:13:57.836Z,75.30
2017-09-16T22:16:25.587Z,75.30
2017-09-16T22:18:53.930Z,75.90
2017-09-16T22:21:21.577Z,75.90
2017-09-16T22:23:50.632Z,76.30
2017-09-16T22:26:18.456Z,76.40
2017-09-16T22:28:46.837Z,76.30
2017-09-16T22:31:14.396Z,76.40
2017-09-16T22:33:42.059Z,76.30
2017-09-16T22:36:09.619Z,76.50
2017-09-16T22:38:37.212Z,76.80
2017-09-16T22:41:05.536Z,77.30
2017-09-16T22:43:33.116Z,77.30
2017-09-16T22:46:00.677Z,77.50
2017-09-16T22:48:28.354Z,77.90
2017-09-16T22:50:55.916Z,78.00
2017-09-16T22:53:24.696Z,78.50
2017-09-16T22:55:53.076Z,78.40
2017-09-16T22:58:20.637Z,78.70
2017-09-16T23:00:48.220Z,78.60
2017-09-16T23:03:16.544Z,78.40
2017-09-16T23:05:44.129Z,78.40
2017-09-16T23:08:11.690Z,78.50
2017-09-16T23:10:40.780Z,78.40
2017-09-16T23:13:08.356Z,78.40
2017-09-16T23:15:36.111Z,78.90
2017-09-16T23:18:03.672Z,79.40
2017-09-16T23:20:31.228Z,79.40
2017-09-16T23:22:59.580Z,80.00
2017-09-16T23:25:27.185Z,80.00
2017-09-16T23:27:54.776Z,79.90
2017-09-16T23:30:22.396Z,79.90
2017-09-16T23:32:51.016Z,80.00
2017-09-16T23:35:19.344Z,79.80
2017-09-16T23:37:46.937Z,79.90
2017-09-16T23:40:15.300Z,80.60
2017-09-16T23:42:42.885Z,79.90
2017-09-16T23:45:11.212Z,79.90
2017-09-16T23:47:38.791Z,79.80
2017-09-16T23:50:06.363Z,79.90
2017-09-16T23:52:34.029Z,79.80
2017-09-16T23:55:01.588Z,79.90
2017-09-16T23:57:29.248Z,80.20
2017-09-16T23:59:56.813Z,80.10
